sensor_id;sensor_type;location;lat;lon;timestamp;P1;durP1;ratioP1;P2;durP2;ratioP2
30149;SDS011;16962;48.646;9.026;2023-03-01T00:02:40;44.85;;;21.52;;
30149;SDS011;16962;48.646;9.026;2023-03-01T00:05:27;36.50;;;20.20;;
30149;SDS011;16962;48.646;9.026;2023-03-01T00:08:14;43.30;;;21.45;;
30149;SDS011;16962;48.646;9.026;2023-03-01T00:11:10;38.58;;;21.88;;
30149;SDS011;16962;48.646;9.026;2023-03-01T00:14:01;41.67;;;21.77;;
30149;SDS011;16962;48.646;9.026;2023-03-01T00:16:51;38.35;;;20.80;;
30149;SDS011;16962;48.646;9.026;2023-03-01T00:19:41;38.13;;;21.35;;
30149;SDS011;16962;48.646;9.026;2023-03-01T00:22:28;43.80;;;23.63;;
30149;SDS011;16962;48.646;9.026;2023-03-01T00:25:16;42.13;;;21.50;;
30149;SDS011;16962;48.646;9.026;2023-03-01T00:28:05;51.97;;;24.05;;
30149;SDS011;16962;48.646;9.026;2023-03-01T00:30:53;40.47;;;22.58;;
30149;SDS011;16962;48.646;9.026;2023-03-01T00:33:40;40.60;;;20.90;;
30149;SDS011;16962;48.646;9.026;2023-03-01T00:36:29;47.50;;;23.30;;
30149;SDS011;16962;48.646;9.026;2023-03-01T00:39:18;46.03;;;23.33;;
30149;SDS011;16962;48.646;9.026;2023-03-01T00:42:05;43.10;;;23.52;;
30149;SDS011;16962;48.646;9.026;2023-03-01T00:44:52;46.03;;;22.25;;
30149;SDS011;16962;48.646;9.026;2023-03-01T00:47:39;44.25;;;22.65;;
30149;SDS011;16962;48.646;9.026;2023-03-01T00:50:27;44.92;;;22.95;;
30149;SDS011;16962;48.646;9.026;2023-03-01T00:53:14;42.17;;;21.88;;
30149;SDS011;16962;48.646;9.026;2023-03-01T00:56:04;48.28;;;23.23;;
30149;SDS011;16962;48.646;9.026;2023-03-01T00:58:52;42.63;;;22.77;;
30149;SDS011;16962;48.646;9.026;2023-03-01T01:01:39;49.25;;;22.30;;
30149;SDS011;16962;48.646;9.026;2023-03-01T01:04:26;46.63;;;23.25;;
30149;SDS011;16962;48.646;9.026;2023-03-01T01:07:14;41.53;;;22.23;;
30149;SDS011;16962;48.646;9.026;2023-03-01T01:10:01;48.47;;;23.50;;
30149;SDS011;16962;48.646;9.026;2023-03-01T01:12:49;46.20;;;23.50;;
30149;SDS011;16962;48.646;9.026;2023-03-01T01:15:36;42.97;;;22.92;;
30149;SDS011;16962;48.646;9.026;2023-03-01T01:18:23;46.63;;;23.20;;
30149;SDS011;16962;48.646;9.026;2023-03-01T01:21:14;40.00;;;22.42;;
30149;SDS011;16962;48.646;9.026;2023-03-01T01:24:03;44.38;;;23.85;;
30149;SDS011;16962;48.646;9.026;2023-03-01T01:26:51;49.20;;;23.50;;
30149;SDS011;16962;48.646;9.026;2023-03-01T01:29:40;51.60;;;23.90;;
30149;SDS011;16962;48.646;9.026;2023-03-01T01:32:28;48.13;;;24.60;;
30149;SDS011;16962;48.646;9.026;2023-03-01T01:35:15;48.20;;;23.63;;
30149;SDS011;16962;48.646;9.026;2023-03-01T01:38:03;51.88;;;25.40;;
30149;SDS011;16962;48.646;9.026;2023-03-01T01:40:50;50.22;;;25.40;;
30149;SDS011;16962;48.646;9.026;2023-03-01T01:43:45;48.47;;;24.83;;
30149;SDS011;16962;48.646;9.026;2023-03-01T01:47:04;51.80;;;25.45;;
30149;SDS011;16962;48.646;9.026;2023-03-01T01:49:54;50.58;;;24.65;;
30149;SDS011;16962;48.646;9.026;2023-03-01T01:52:42;49.80;;;24.25;;
30149;SDS011;16962;48.646;9.026;2023-03-01T01:55:32;48.40;;;24.80;;
30149;SDS011;16962;48.646;9.026;2023-03-01T01:58:22;52.53;;;26.40;;
30149;SDS011;16962;48.646;9.026;2023-03-01T02:01:15;47.00;;;24.33;;
30149;SDS011;16962;48.646;9.026;2023-03-01T02:04:03;46.95;;;26.08;;
30149;SDS011;16962;48.646;9.026;2023-03-01T02:06:55;56.92;;;26.30;;
30149;SDS011;16962;48.646;9.026;2023-03-01T02:09:50;49.03;;;25.65;;
30149;SDS011;16962;48.646;9.026;2023-03-01T02:12:40;46.55;;;24.77;;
30149;SDS011;16962;48.646;9.026;2023-03-01T02:15:28;46.55;;;24.38;;
30149;SDS011;16962;48.646;9.026;2023-03-01T02:18:20;55.30;;;25.70;;
30149;SDS011;16962;48.646;9.026;2023-03-01T02:27:50;49.92;;;23.67;;
30149;SDS011;16962;48.646;9.026;2023-03-01T02:30:47;45.95;;;23.30;;
30149;SDS011;16962;48.646;9.026;2023-03-01T02:33:55;48.80;;;24.52;;
30149;SDS011;16962;48.646;9.026;2023-03-01T02:36:51;41.83;;;22.85;;
30149;SDS011;16962;48.646;9.026;2023-03-01T02:39:44;41.13;;;22.75;;
30149;SDS011;16962;48.646;9.026;2023-03-01T02:42:36;47.15;;;25.02;;
30149;SDS011;16962;48.646;9.026;2023-03-01T02:45:30;44.70;;;22.63;;
30149;SDS011;16962;48.646;9.026;2023-03-01T02:48:19;43.20;;;23.08;;
30149;SDS011;16962;48.646;9.026;2023-03-01T02:51:10;45.10;;;23.80;;
30149;SDS011;16962;48.646;9.026;2023-03-01T02:57:29;43.35;;;22.38;;
30149;SDS011;16962;48.646;9.026;2023-03-01T03:00:23;39.80;;;21.85;;
30149;SDS011;16962;48.646;9.026;2023-03-01T03:03:15;43.25;;;22.33;;
30149;SDS011;16962;48.646;9.026;2023-03-01T03:06:03;47.25;;;23.10;;
30149;SDS011;16962;48.646;9.026;2023-03-01T03:08:51;45.90;;;23.70;;
30149;SDS011;16962;48.646;9.026;2023-03-01T03:11:48;42.67;;;23.10;;
30149;SDS011;16962;48.646;9.026;2023-03-01T03:14:35;41.47;;;22.98;;
30149;SDS011;16962;48.646;9.026;2023-03-01T03:17:22;41.28;;;23.10;;
30149;SDS011;16962;48.646;9.026;2023-03-01T03:20:11;38.58;;;22.20;;
30149;SDS011;16962;48.646;9.026;2023-03-01T03:23:05;42.40;;;23.48;;
30149;SDS011;16962;48.646;9.026;2023-03-01T03:25:53;43.83;;;23.42;;
30149;SDS011;16962;48.646;9.026;2023-03-01T03:28:40;44.53;;;23.33;;
30149;SDS011;16962;48.646;9.026;2023-03-01T03:31:27;41.97;;;23.88;;
30149;SDS011;16962;48.646;9.026;2023-03-01T03:34:17;41.33;;;21.98;;
30149;SDS011;16962;48.646;9.026;2023-03-01T03:37:04;43.88;;;22.52;;
30149;SDS011;16962;48.646;9.026;2023-03-01T03:40:11;40.70;;;22.15;;
30149;SDS011;16962;48.646;9.026;2023-03-01T03:43:02;42.90;;;21.80;;
30149;SDS011;16962;48.646;9.026;2023-03-01T03:45:51;38.10;;;21.58;;
30149;SDS011;16962;48.646;9.026;2023-03-01T03:48:44;41.10;;;22.30;;
30149;SDS011;16962;48.646;9.026;2023-03-01T03:51:32;46.88;;;22.65;;
30149;SDS011;16962;48.646;9.026;2023-03-01T03:54:19;43.47;;;22.77;;
30149;SDS011;16962;48.646;9.026;2023-03-01T03:57:06;44.10;;;22.02;;
30149;SDS011;16962;48.646;9.026;2023-03-01T03:59:54;41.53;;;23.52;;
30149;SDS011;16962;48.646;9.026;2023-03-01T04:02:41;41.88;;;22.42;;
30149;SDS011;16962;48.646;9.026;2023-03-01T04:05:29;46.30;;;24.15;;
30149;SDS011;16962;48.646;9.026;2023-03-01T04:08:18;45.33;;;23.13;;
30149;SDS011;16962;48.646;9.026;2023-03-01T04:11:10;44.45;;;23.92;;
30149;SDS011;16962;48.646;9.026;2023-03-01T04:14:13;44.35;;;23.45;;
30149;SDS011;16962;48.646;9.026;2023-03-01T04:17:01;43.65;;;23.70;;
30149;SDS011;16962;48.646;9.026;2023-03-01T04:19:51;40.25;;;23.08;;
30149;SDS011;16962;48.646;9.026;2023-03-01T04:22:39;41.70;;;23.08;;
30149;SDS011;16962;48.646;9.026;2023-03-01T04:25:28;42.72;;;23.63;;
30149;SDS011;16962;48.646;9.026;2023-03-01T04:28:21;44.90;;;23.65;;
30149;SDS011;16962;48.646;9.026;2023-03-01T04:31:14;42.05;;;23.17;;
30149;SDS011;16962;48.646;9.026;2023-03-01T04:34:04;43.20;;;24.38;;
30149;SDS011;16962;48.646;9.026;2023-03-01T04:36:53;45.15;;;24.25;;
30149;SDS011;16962;48.646;9.026;2023-03-01T04:39:40;44.30;;;23.20;;
30149;SDS011;16962;48.646;9.026;2023-03-01T04:42:35;46.13;;;23.88;;
30149;SDS011;16962;48.646;9.026;2023-03-01T04:45:22;45.05;;;24.00;;
30149;SDS011;16962;48.646;9.026;2023-03-01T04:48:12;47.47;;;24.30;;
30149;SDS011;16962;48.646;9.026;2023-03-01T04:51:00;45.33;;;24.17;;
30149;SDS011;16962;48.646;9.026;2023-03-01T04:53:47;41.65;;;22.00;;
30149;SDS011;16962;48.646;9.026;2023-03-01T04:56:34;46.70;;;23.85;;
30149;SDS011;16962;48.646;9.026;2023-03-01T04:59:21;46.13;;;24.00;;
30149;SDS011;16962;48.646;9.026;2023-03-01T05:05:41;46.22;;;25.13;;
30149;SDS011;16962;48.646;9.026;2023-03-01T05:08:30;45.95;;;23.73;;
30149;SDS011;16962;48.646;9.026;2023-03-01T05:11:20;43.80;;;24.50;;
30149;SDS011;16962;48.646;9.026;2023-03-01T05:14:11;51.42;;;23.80;;
30149;SDS011;16962;48.646;9.026;2023-03-01T05:16:58;46.50;;;25.23;;
30149;SDS011;16962;48.646;9.026;2023-03-01T05:19:50;51.33;;;26.23;;
30149;SDS011;16962;48.646;9.026;2023-03-01T05:22:37;50.22;;;25.08;;
30149;SDS011;16962;48.646;9.026;2023-03-01T05:25:25;46.60;;;25.40;;
30149;SDS011;16962;48.646;9.026;2023-03-01T05:28:20;47.13;;;24.23;;
30149;SDS011;16962;48.646;9.026;2023-03-01T05:31:12;46.50;;;25.53;;
30149;SDS011;16962;48.646;9.026;2023-03-01T05:34:05;45.17;;;23.30;;
30149;SDS011;16962;48.646;9.026;2023-03-01T05:36:53;45.60;;;25.73;;
30149;SDS011;16962;48.646;9.026;2023-03-01T05:39:43;47.17;;;24.55;;
30149;SDS011;16962;48.646;9.026;2023-03-01T05:42:34;46.17;;;24.73;;
30149;SDS011;16962;48.646;9.026;2023-03-01T05:45:23;48.60;;;25.80;;
30149;SDS011;16962;48.646;9.026;2023-03-01T05:48:13;49.63;;;24.63;;
30149;SDS011;16962;48.646;9.026;2023-03-01T05:51:00;53.95;;;26.30;;
30149;SDS011;16962;48.646;9.026;2023-03-01T05:53:49;51.22;;;25.63;;
30149;SDS011;16962;48.646;9.026;2023-03-01T05:56:37;44.75;;;24.70;;
30149;SDS011;16962;48.646;9.026;2023-03-01T05:59:24;49.80;;;25.27;;
30149;SDS011;16962;48.646;9.026;2023-03-01T06:02:11;45.22;;;24.92;;
30149;SDS011;16962;48.646;9.026;2023-03-01T06:04:59;48.22;;;26.58;;
30149;SDS011;16962;48.646;9.026;2023-03-01T06:07:49;48.63;;;25.08;;
30149;SDS011;16962;48.646;9.026;2023-03-01T06:10:36;45.15;;;26.10;;
30149;SDS011;16962;48.646;9.026;2023-03-01T06:13:24;45.25;;;25.13;;
30149;SDS011;16962;48.646;9.026;2023-03-01T06:16:11;46.10;;;25.08;;
30149;SDS011;16962;48.646;9.026;2023-03-01T06:19:00;46.63;;;24.70;;
30149;SDS011;16962;48.646;9.026;2023-03-01T06:21:47;45.05;;;24.23;;
30149;SDS011;16962;48.646;9.026;2023-03-01T06:24:37;47.80;;;25.05;;
30149;SDS011;16962;48.646;9.026;2023-03-01T06:27:32;51.83;;;24.75;;
30149;SDS011;16962;48.646;9.026;2023-03-01T06:30:23;46.47;;;25.15;;
30149;SDS011;16962;48.646;9.026;2023-03-01T06:33:14;49.38;;;25.23;;
30149;SDS011;16962;48.646;9.026;2023-03-01T06:36:07;52.78;;;25.83;;
30149;SDS011;16962;48.646;9.026;2023-03-01T06:38:56;48.83;;;25.65;;
30149;SDS011;16962;48.646;9.026;2023-03-01T06:41:45;51.17;;;26.65;;
30149;SDS011;16962;48.646;9.026;2023-03-01T06:44:33;48.40;;;24.80;;
30149;SDS011;16962;48.646;9.026;2023-03-01T06:47:20;49.95;;;24.77;;
30149;SDS011;16962;48.646;9.026;2023-03-01T06:50:07;49.10;;;24.23;;
30149;SDS011;16962;48.646;9.026;2023-03-01T06:52:56;44.20;;;24.38;;
30149;SDS011;16962;48.646;9.026;2023-03-01T06:55:43;46.13;;;24.63;;
30149;SDS011;16962;48.646;9.026;2023-03-01T06:58:33;45.15;;;25.23;;
30149;SDS011;16962;48.646;9.026;2023-03-01T07:01:20;38.72;;;22.85;;
30149;SDS011;16962;48.646;9.026;2023-03-01T07:04:08;43.42;;;24.83;;
30149;SDS011;16962;48.646;9.026;2023-03-01T07:06:55;46.85;;;24.48;;
30149;SDS011;16962;48.646;9.026;2023-03-01T07:09:42;46.42;;;23.92;;
30149;SDS011;16962;48.646;9.026;2023-03-01T07:12:30;43.28;;;24.60;;
30149;SDS011;16962;48.646;9.026;2023-03-01T07:15:17;43.65;;;23.85;;
30149;SDS011;16962;48.646;9.026;2023-03-01T07:18:05;42.33;;;24.55;;
30149;SDS011;16962;48.646;9.026;2023-03-01T07:20:55;39.58;;;21.52;;
30149;SDS011;16962;48.646;9.026;2023-03-01T07:23:42;42.47;;;22.85;;
30149;SDS011;16962;48.646;9.026;2023-03-01T07:26:30;44.75;;;24.23;;
30149;SDS011;16962;48.646;9.026;2023-03-01T07:29:17;42.60;;;23.92;;
30149;SDS011;16962;48.646;9.026;2023-03-01T07:32:15;51.60;;;23.83;;
30149;SDS011;16962;48.646;9.026;2023-03-01T07:35:04;43.47;;;24.00;;
30149;SDS011;16962;48.646;9.026;2023-03-01T07:37:52;37.42;;;21.60;;
30149;SDS011;16962;48.646;9.026;2023-03-01T07:40:40;41.92;;;23.65;;
30149;SDS011;16962;48.646;9.026;2023-03-01T07:43:28;43.30;;;23.08;;
30149;SDS011;16962;48.646;9.026;2023-03-01T07:46:17;39.92;;;22.33;;
30149;SDS011;16962;48.646;9.026;2023-03-01T07:49:05;44.20;;;22.63;;
30149;SDS011;16962;48.646;9.026;2023-03-01T07:51:53;40.35;;;22.77;;
30149;SDS011;16962;48.646;9.026;2023-03-01T07:54:42;40.72;;;22.40;;
30149;SDS011;16962;48.646;9.026;2023-03-01T07:57:30;39.50;;;22.95;;
30149;SDS011;16962;48.646;9.026;2023-03-01T08:00:18;41.05;;;23.42;;
30149;SDS011;16962;48.646;9.026;2023-03-01T08:03:08;40.10;;;22.38;;
30149;SDS011;16962;48.646;9.026;2023-03-01T08:05:55;42.08;;;22.70;;
30149;SDS011;16962;48.646;9.026;2023-03-01T08:08:43;35.58;;;22.35;;
30149;SDS011;16962;48.646;9.026;2023-03-01T08:11:31;39.35;;;22.65;;
30149;SDS011;16962;48.646;9.026;2023-03-01T08:14:19;37.53;;;22.02;;
30149;SDS011;16962;48.646;9.026;2023-03-01T08:17:08;39.47;;;22.83;;
30149;SDS011;16962;48.646;9.026;2023-03-01T08:19:55;38.45;;;23.05;;
30149;SDS011;16962;48.646;9.026;2023-03-01T08:22:43;35.85;;;22.33;;
30149;SDS011;16962;48.646;9.026;2023-03-01T08:25:32;36.90;;;20.85;;
30149;SDS011;16962;48.646;9.026;2023-03-01T08:28:22;37.05;;;22.50;;
30149;SDS011;16962;48.646;9.026;2023-03-01T08:31:21;38.88;;;22.98;;
30149;SDS011;16962;48.646;9.026;2023-03-01T08:34:16;39.85;;;23.45;;
30149;SDS011;16962;48.646;9.026;2023-03-01T08:37:04;38.53;;;22.73;;
30149;SDS011;16962;48.646;9.026;2023-03-01T08:39:51;36.28;;;21.58;;
30149;SDS011;16962;48.646;9.026;2023-03-01T08:42:39;35.90;;;21.88;;
30149;SDS011;16962;48.646;9.026;2023-03-01T08:45:30;32.80;;;21.92;;
30149;SDS011;16962;48.646;9.026;2023-03-01T08:48:17;40.10;;;21.98;;
30149;SDS011;16962;48.646;9.026;2023-03-01T08:53:56;36.05;;;22.25;;
30149;SDS011;16962;48.646;9.026;2023-03-01T08:56:43;37.67;;;22.50;;
30149;SDS011;16962;48.646;9.026;2023-03-01T08:59:31;36.20;;;21.70;;
30149;SDS011;16962;48.646;9.026;2023-03-01T09:02:23;41.08;;;23.23;;
30149;SDS011;16962;48.646;9.026;2023-03-01T09:05:13;38.13;;;22.75;;
30149;SDS011;16962;48.646;9.026;2023-03-01T09:08:00;37.33;;;21.33;;
30149;SDS011;16962;48.646;9.026;2023-03-01T09:10:47;38.40;;;22.90;;
30149;SDS011;16962;48.646;9.026;2023-03-01T09:13:35;41.78;;;23.02;;
30149;SDS011;16962;48.646;9.026;2023-03-01T09:16:23;31.45;;;21.42;;
30149;SDS011;16962;48.646;9.026;2023-03-01T09:19:10;37.17;;;22.77;;
30149;SDS011;16962;48.646;9.026;2023-03-01T09:21:57;37.60;;;22.33;;
30149;SDS011;16962;48.646;9.026;2023-03-01T09:24:45;40.50;;;23.98;;
30149;SDS011;16962;48.646;9.026;2023-03-01T09:27:32;41.83;;;22.30;;
30149;SDS011;16962;48.646;9.026;2023-03-01T09:30:20;37.40;;;22.52;;
30149;SDS011;16962;48.646;9.026;2023-03-01T09:33:07;38.70;;;23.02;;
30149;SDS011;16962;48.646;9.026;2023-03-01T09:36:04;33.92;;;21.50;;
30149;SDS011;16962;48.646;9.026;2023-03-01T09:38:56;34.60;;;21.75;;
30149;SDS011;16962;48.646;9.026;2023-03-01T09:44:54;39.75;;;21.92;;
30149;SDS011;16962;48.646;9.026;2023-03-01T09:47:52;30.52;;;19.83;;
30149;SDS011;16962;48.646;9.026;2023-03-01T09:50:44;35.20;;;22.48;;
30149;SDS011;16962;48.646;9.026;2023-03-01T09:53:35;35.75;;;21.27;;
30149;SDS011;16962;48.646;9.026;2023-03-01T09:56:27;40.40;;;21.98;;
30149;SDS011;16962;48.646;9.026;2023-03-01T10:06:09;34.67;;;20.27;;
30149;SDS011;16962;48.646;9.026;2023-03-01T10:11:41;32.05;;;19.67;;
30149;SDS011;16962;48.646;9.026;2023-03-01T10:14:43;33.13;;;21.10;;
30149;SDS011;16962;48.646;9.026;2023-03-01T10:17:37;35.47;;;20.42;;
30149;SDS011;16962;48.646;9.026;2023-03-01T10:20:42;30.90;;;19.52;;
30149;SDS011;16962;48.646;9.026;2023-03-01T10:23:38;37.55;;;20.90;;
30149;SDS011;16962;48.646;9.026;2023-03-01T10:29:23;28.13;;;19.88;;
30149;SDS011;16962;48.646;9.026;2023-03-01T10:32:18;31.67;;;19.63;;
30149;SDS011;16962;48.646;9.026;2023-03-01T10:38:22;33.65;;;20.95;;
30149;SDS011;16962;48.646;9.026;2023-03-01T10:41:11;30.73;;;19.33;;
30149;SDS011;16962;48.646;9.026;2023-03-01T10:43:59;31.38;;;20.63;;
30149;SDS011;16962;48.646;9.026;2023-03-01T10:46:47;33.25;;;19.15;;
30149;SDS011;16962;48.646;9.026;2023-03-01T10:49:51;29.08;;;18.67;;
30149;SDS011;16962;48.646;9.026;2023-03-01T10:52:41;29.38;;;18.73;;
30149;SDS011;16962;48.646;9.026;2023-03-01T10:58:18;29.27;;;18.73;;
30149;SDS011;16962;48.646;9.026;2023-03-01T11:07:00;26.17;;;18.27;;
30149;SDS011;16962;48.646;9.026;2023-03-01T11:09:48;29.40;;;18.73;;
30149;SDS011;16962;48.646;9.026;2023-03-01T11:12:38;32.38;;;20.08;;
30149;SDS011;16962;48.646;9.026;2023-03-01T11:15:26;28.58;;;18.02;;
30149;SDS011;16962;48.646;9.026;2023-03-01T11:18:22;26.25;;;18.42;;
30149;SDS011;16962;48.646;9.026;2023-03-01T11:21:32;27.65;;;19.38;;
30149;SDS011;16962;48.646;9.026;2023-03-01T11:24:23;28.38;;;18.95;;
30149;SDS011;16962;48.646;9.026;2023-03-01T11:27:19;28.23;;;18.63;;
30149;SDS011;16962;48.646;9.026;2023-03-01T11:36:06;29.73;;;19.13;;
30149;SDS011;16962;48.646;9.026;2023-03-01T11:38:54;30.05;;;19.05;;
30149;SDS011;16962;48.646;9.026;2023-03-01T11:41:45;31.35;;;19.73;;
30149;SDS011;16962;48.646;9.026;2023-03-01T11:44:39;33.30;;;19.33;;
30149;SDS011;16962;48.646;9.026;2023-03-01T11:47:38;27.13;;;18.83;;
30149;SDS011;16962;48.646;9.026;2023-03-01T11:50:47;26.27;;;17.80;;
30149;SDS011;16962;48.646;9.026;2023-03-01T11:53:50;25.75;;;17.67;;
30149;SDS011;16962;48.646;9.026;2023-03-01T11:56:50;24.15;;;17.27;;
30149;SDS011;16962;48.646;9.026;2023-03-01T12:02:53;27.80;;;18.35;;
30149;SDS011;16962;48.646;9.026;2023-03-01T12:21:48;26.30;;;18.52;;
30149;SDS011;16962;48.646;9.026;2023-03-01T12:47:06;26.30;;;18.25;;
30149;SDS011;16962;48.646;9.026;2023-03-01T12:50:17;26.73;;;17.73;;
30149;SDS011;16962;48.646;9.026;2023-03-01T12:53:15;24.90;;;17.67;;
30149;SDS011;16962;48.646;9.026;2023-03-01T12:56:32;23.48;;;17.38;;
30149;SDS011;16962;48.646;9.026;2023-03-01T12:59:41;24.98;;;17.10;;
30149;SDS011;16962;48.646;9.026;2023-03-01T13:09:18;25.27;;;17.33;;
30149;SDS011;16962;48.646;9.026;2023-03-01T13:19:56;24.58;;;16.83;;
30149;SDS011;16962;48.646;9.026;2023-03-01T13:23:01;26.02;;;16.67;;
30149;SDS011;16962;48.646;9.026;2023-03-01T13:26:13;23.17;;;16.85;;
30149;SDS011;16962;48.646;9.026;2023-03-01T13:29:02;24.42;;;16.25;;
30149;SDS011;16962;48.646;9.026;2023-03-01T13:31:58;23.95;;;16.67;;
30149;SDS011;16962;48.646;9.026;2023-03-01T13:34:57;27.02;;;15.77;;
30149;SDS011;16962;48.646;9.026;2023-03-01T13:37:50;23.70;;;16.45;;
30149;SDS011;16962;48.646;9.026;2023-03-01T13:43:40;22.52;;;15.57;;
30149;SDS011;16962;48.646;9.026;2023-03-01T13:47:05;22.40;;;16.38;;
30149;SDS011;16962;48.646;9.026;2023-03-01T13:51:27;23.60;;;16.25;;
30149;SDS011;16962;48.646;9.026;2023-03-01T13:58:01;25.65;;;15.60;;
30149;SDS011;16962;48.646;9.026;2023-03-01T14:01:02;23.15;;;16.58;;
30149;SDS011;16962;48.646;9.026;2023-03-01T14:03:49;25.05;;;15.88;;
30149;SDS011;16962;48.646;9.026;2023-03-01T14:06:36;22.25;;;15.55;;
30149;SDS011;16962;48.646;9.026;2023-03-01T14:09:27;22.10;;;15.57;;
30149;SDS011;16962;48.646;9.026;2023-03-01T14:18:14;22.10;;;15.48;;
30149;SDS011;16962;48.646;9.026;2023-03-01T14:21:26;25.42;;;15.43;;
30149;SDS011;16962;48.646;9.026;2023-03-01T14:24:20;20.30;;;13.70;;
30149;SDS011;16962;48.646;9.026;2023-03-01T14:27:12;22.00;;;14.95;;
30149;SDS011;16962;48.646;9.026;2023-03-01T14:30:04;20.17;;;14.98;;
30149;SDS011;16962;48.646;9.026;2023-03-01T14:40:51;24.88;;;16.05;;
30149;SDS011;16962;48.646;9.026;2023-03-01T14:47:05;31.88;;;18.38;;
30149;SDS011;16962;48.646;9.026;2023-03-01T14:52:59;26.80;;;18.40;;
30149;SDS011;16962;48.646;9.026;2023-03-01T14:55:55;29.50;;;18.50;;
30149;SDS011;16962;48.646;9.026;2023-03-01T15:26:57;32.90;;;20.08;;
30149;SDS011;16962;48.646;9.026;2023-03-01T15:30:41;34.78;;;20.63;;
30149;SDS011;16962;48.646;9.026;2023-03-01T15:33:43;34.03;;;20.70;;
30149;SDS011;16962;48.646;9.026;2023-03-01T15:39:31;32.70;;;20.58;;
30149;SDS011;16962;48.646;9.026;2023-03-01T15:45:23;32.00;;;20.08;;
30149;SDS011;16962;48.646;9.026;2023-03-01T15:48:22;33.85;;;19.85;;
30149;SDS011;16962;48.646;9.026;2023-03-01T15:51:22;31.40;;;19.02;;
30149;SDS011;16962;48.646;9.026;2023-03-01T15:54:19;31.13;;;19.50;;
30149;SDS011;16962;48.646;9.026;2023-03-01T15:57:14;28.48;;;18.52;;
30149;SDS011;16962;48.646;9.026;2023-03-01T16:00:02;31.25;;;20.25;;
30149;SDS011;16962;48.646;9.026;2023-03-01T16:02:57;32.38;;;21.00;;
30149;SDS011;16962;48.646;9.026;2023-03-01T16:06:08;31.85;;;20.30;;
30149;SDS011;16962;48.646;9.026;2023-03-01T16:08:59;37.53;;;21.67;;
30149;SDS011;16962;48.646;9.026;2023-03-01T16:11:46;34.53;;;21.45;;
30149;SDS011;16962;48.646;9.026;2023-03-01T16:14:34;34.47;;;21.17;;
30149;SDS011;16962;48.646;9.026;2023-03-01T16:17:21;39.28;;;21.52;;
30149;SDS011;16962;48.646;9.026;2023-03-01T16:20:09;34.08;;;21.42;;
30149;SDS011;16962;48.646;9.026;2023-03-01T16:23:09;36.05;;;20.75;;
30149;SDS011;16962;48.646;9.026;2023-03-01T16:26:01;36.38;;;21.80;;
30149;SDS011;16962;48.646;9.026;2023-03-01T16:28:48;39.90;;;22.15;;
30149;SDS011;16962;48.646;9.026;2023-03-01T16:31:40;35.45;;;21.98;;
30149;SDS011;16962;48.646;9.026;2023-03-01T16:34:30;39.08;;;21.92;;
30149;SDS011;16962;48.646;9.026;2023-03-01T16:37:22;36.70;;;21.05;;
30149;SDS011;16962;48.646;9.026;2023-03-01T16:40:20;37.40;;;21.95;;
30149;SDS011;16962;48.646;9.026;2023-03-01T16:43:09;40.80;;;22.63;;
30149;SDS011;16962;48.646;9.026;2023-03-01T16:45:57;40.47;;;22.60;;
30149;SDS011;16962;48.646;9.026;2023-03-01T16:48:45;44.10;;;22.65;;
30149;SDS011;16962;48.646;9.026;2023-03-01T16:51:33;40.60;;;22.58;;
30149;SDS011;16962;48.646;9.026;2023-03-01T16:54:23;39.25;;;22.60;;
30149;SDS011;16962;48.646;9.026;2023-03-01T16:57:11;37.33;;;21.52;;
30149;SDS011;16962;48.646;9.026;2023-03-01T16:59:58;35.70;;;20.98;;
30149;SDS011;16962;48.646;9.026;2023-03-01T17:02:46;42.35;;;23.30;;
30149;SDS011;16962;48.646;9.026;2023-03-01T17:05:34;38.13;;;21.80;;
30149;SDS011;16962;48.646;9.026;2023-03-01T17:08:21;39.90;;;22.80;;
30149;SDS011;16962;48.646;9.026;2023-03-01T17:11:13;37.63;;;22.10;;
30149;SDS011;16962;48.646;9.026;2023-03-01T17:14:05;41.72;;;22.35;;
30149;SDS011;16962;48.646;9.026;2023-03-01T17:16:53;38.55;;;21.98;;
30149;SDS011;16962;48.646;9.026;2023-03-01T17:19:41;39.88;;;21.70;;
30149;SDS011;16962;48.646;9.026;2023-03-01T17:22:30;37.22;;;21.85;;
30149;SDS011;16962;48.646;9.026;2023-03-01T17:25:17;45.15;;;21.80;;
30149;SDS011;16962;48.646;9.026;2023-03-01T17:28:05;42.45;;;21.95;;
30149;SDS011;16962;48.646;9.026;2023-03-01T17:30:52;35.35;;;20.83;;
30149;SDS011;16962;48.646;9.026;2023-03-01T17:33:40;38.00;;;21.90;;
30149;SDS011;16962;48.646;9.026;2023-03-01T17:36:27;39.53;;;22.50;;
30149;SDS011;16962;48.646;9.026;2023-03-01T17:39:15;37.65;;;20.58;;
30149;SDS011;16962;48.646;9.026;2023-03-01T17:42:05;42.03;;;22.50;;
30149;SDS011;16962;48.646;9.026;2023-03-01T17:44:52;40.00;;;21.00;;
30149;SDS011;16962;48.646;9.026;2023-03-01T17:47:40;38.13;;;21.38;;
30149;SDS011;16962;48.646;9.026;2023-03-01T17:50:30;42.65;;;22.38;;
30149;SDS011;16962;48.646;9.026;2023-03-01T17:53:18;40.50;;;21.45;;
30149;SDS011;16962;48.646;9.026;2023-03-01T17:56:05;37.15;;;21.98;;
30149;SDS011;16962;48.646;9.026;2023-03-01T17:58:53;40.03;;;21.88;;
30149;SDS011;16962;48.646;9.026;2023-03-01T18:01:42;38.60;;;21.85;;
30149;SDS011;16962;48.646;9.026;2023-03-01T18:04:29;41.35;;;21.83;;
30149;SDS011;16962;48.646;9.026;2023-03-01T18:10:40;39.78;;;21.67;;
30149;SDS011;16962;48.646;9.026;2023-03-01T18:13:30;46.38;;;23.88;;
30149;SDS011;16962;48.646;9.026;2023-03-01T18:16:19;46.60;;;24.48;;
30149;SDS011;16962;48.646;9.026;2023-03-01T18:19:11;44.35;;;23.40;;
30149;SDS011;16962;48.646;9.026;2023-03-01T18:21:59;41.92;;;22.77;;
30149;SDS011;16962;48.646;9.026;2023-03-01T18:24:46;42.03;;;23.30;;
30149;SDS011;16962;48.646;9.026;2023-03-01T18:27:33;41.53;;;22.52;;
30149;SDS011;16962;48.646;9.026;2023-03-01T18:30:22;43.65;;;21.70;;
30149;SDS011;16962;48.646;9.026;2023-03-01T18:33:10;47.58;;;23.27;;
30149;SDS011;16962;48.646;9.026;2023-03-01T18:36:00;38.17;;;22.05;;
30149;SDS011;16962;48.646;9.026;2023-03-01T18:38:47;42.30;;;22.67;;
30149;SDS011;16962;48.646;9.026;2023-03-01T18:41:36;41.80;;;21.67;;
30149;SDS011;16962;48.646;9.026;2023-03-01T18:44:26;39.35;;;21.40;;
30149;SDS011;16962;48.646;9.026;2023-03-01T18:47:13;43.08;;;21.80;;
30149;SDS011;16962;48.646;9.026;2023-03-01T18:50:02;39.03;;;22.05;;
30149;SDS011;16962;48.646;9.026;2023-03-01T18:52:50;44.50;;;22.55;;
30149;SDS011;16962;48.646;9.026;2023-03-01T18:55:38;41.90;;;22.52;;
30149;SDS011;16962;48.646;9.026;2023-03-01T18:58:26;42.85;;;23.23;;
30149;SDS011;16962;48.646;9.026;2023-03-01T19:01:19;47.03;;;23.90;;
30149;SDS011;16962;48.646;9.026;2023-03-01T19:04:09;40.15;;;21.73;;
30149;SDS011;16962;48.646;9.026;2023-03-01T19:06:57;43.95;;;22.70;;
30149;SDS011;16962;48.646;9.026;2023-03-01T19:09:50;39.38;;;21.05;;
30149;SDS011;16962;48.646;9.026;2023-03-01T19:12:38;44.50;;;22.48;;
30149;SDS011;16962;48.646;9.026;2023-03-01T19:15:28;41.53;;;22.52;;
30149;SDS011;16962;48.646;9.026;2023-03-01T19:18:15;42.35;;;23.52;;
30149;SDS011;16962;48.646;9.026;2023-03-01T19:21:04;43.35;;;22.45;;
30149;SDS011;16962;48.646;9.026;2023-03-01T19:23:53;40.40;;;22.58;;
30149;SDS011;16962;48.646;9.026;2023-03-01T19:26:42;45.67;;;22.60;;
30149;SDS011;16962;48.646;9.026;2023-03-01T19:29:31;37.88;;;21.77;;
30149;SDS011;16962;48.646;9.026;2023-03-01T19:32:18;42.72;;;21.88;;